createdAt,value
2022-09-12T00:01:42.280Z,16.11
2022-09-12T00:04:44.617Z,16.09
2022-09-12T00:07:46.757Z,16.10
2022-09-12T00:10:49.182Z,16.03
2022-09-12T00:13:52.359Z,15.98
2022-09-12T00:16:59.251Z,16.02
2022-09-12T00:20:02.043Z,16.13
2022-09-12T00:23:04.603Z,16.13
2022-09-12T00:26:07.912Z,16.18
2022-09-12T00:29:16.773Z,16.12
2022-09-12T00:32:19.018Z,16.10
2022-09-12T00:35:21.391Z,16.16
2022-09-12T00:38:23.462Z,16.21
2022-09-12T00:41:34.879Z,16.22
2022-09-12T00:44:36.923Z,16.20
2022-09-12T00:47:39.311Z,16.16
2022-09-12T00:50:41.449Z,16.23
2022-09-12T00:53:46.152Z,16.13
2022-09-12T00:56:51.202Z,16.08
2022-09-12T01:00:08.708Z,16.06
2022-09-12T01:03:17.709Z,16.08
2022-09-12T01:06:28.729Z,16.05
2022-09-12T01:09:31.215Z,16.07
2022-09-12T01:12:34.765Z,16.07
2022-09-12T01:15:38.900Z,16.15
2022-09-12T01:19:20.163Z,16.13
2022-09-12T01:22:25.095Z,16.06
2022-09-12T01:26:00.408Z,16.06
2022-09-12T01:29:11.203Z,16.07
2022-09-12T01:32:19.269Z,16.15
2022-09-12T01:35:32.491Z,16.15
2022-09-12T01:38:42.590Z,16.21
2022-09-12T01:41:54.511Z,16.13
2022-09-12T01:45:23.106Z,16.16
2022-09-12T01:48:33.069Z,16.17
2022-09-12T01:51:48.912Z,16.16
2022-09-12T01:55:09.950Z,16.15
2022-09-12T01:58:18.963Z,16.15
2022-09-12T02:01:27.428Z,16.19
2022-09-12T02:04:34.769Z,16.15
2022-09-12T02:07:43.279Z,16.11
2022-09-12T02:10:53.698Z,16.16
2022-09-12T02:14:06.616Z,16.15
2022-09-12T02:17:22.325Z,16.09
2022-09-12T02:20:47.500Z,16.09
2022-09-12T02:23:57.270Z,16.13
2022-09-12T02:27:09.993Z,16.21
2022-09-12T02:30:16.436Z,16.16
2022-09-12T02:33:30.924Z,16.14
2022-09-12T02:36:40.054Z,16.08
2022-09-12T02:39:45.330Z,16.05
2022-09-12T02:42:48.025Z,16.06
2022-09-12T02:45:50.337Z,15.98
2022-09-12T02:48:54.304Z,15.87
2022-09-12T02:51:56.506Z,15.84
2022-09-12T02:54:59.840Z,15.78
2022-09-12T02:58:05.163Z,15.75
2022-09-12T03:01:14.856Z,15.63
2022-09-12T03:04:55.723Z,15.57
2022-09-12T03:08:20.286Z,15.55
2022-09-12T03:11:42.231Z,15.66
2022-09-12T03:15:01.508Z,15.61
2022-09-12T03:18:20.898Z,15.65
2022-09-12T03:21:33.486Z,15.62
2022-09-12T03:24:40.939Z,15.60
2022-09-12T03:27:53.032Z,15.67
2022-09-12T03:30:56.503Z,15.76
2022-09-12T03:34:02.013Z,15.79
2022-09-12T03:37:04.170Z,15.73
2022-09-12T03:40:08.075Z,15.73
2022-09-12T03:43:11.200Z,15.70
2022-09-12T03:46:13.988Z,15.68
2022-09-12T03:49:16.553Z,15.66
2022-09-12T03:52:19.331Z,15.64
2022-09-12T03:55:21.389Z,15.61
2022-09-12T03:58:24.193Z,15.60
2022-09-12T04:01:26.304Z,15.58
2022-09-12T04:04:28.659Z,15.59
2022-09-12T04:07:30.808Z,15.48
2022-09-12T04:10:33.374Z,15.52
2022-09-12T04:13:36.527Z,15.54
2022-09-12T04:16:38.874Z,15.52
2022-09-12T04:19:40.925Z,15.55
2022-09-12T04:22:43.272Z,15.63
2022-09-12T04:25:52.949Z,15.72
2022-09-12T04:28:57.525Z,15.76
2022-09-12T04:31:59.575Z,15.74
2022-09-12T04:35:02.207Z,15.82
2022-09-12T04:38:04.254Z,15.83
2022-09-12T04:41:20.715Z,15.81
2022-09-12T04:44:22.837Z,15.85
2022-09-12T04:47:25.199Z,15.79
2022-09-12T04:50:27.742Z,15.81
2022-09-12T04:53:30.173Z,15.69
2022-09-12T04:56:34.362Z,15.63
2022-09-12T04:59:36.697Z,15.50
2022-09-12T05:02:39.583Z,15.53
2022-09-12T05:05:41.974Z,15.64
2022-09-12T05:08:44.140Z,15.62
2022-09-12T05:12:03.802Z,15.67
2022-09-12T05:15:07.299Z,15.73
2022-09-12T05:18:09.627Z,15.76
2022-09-12T05:21:15.829Z,15.83
2022-09-12T05:24:18.352Z,15.84
2022-09-12T05:27:20.526Z,15.82
2022-09-12T05:30:22.904Z,15.87
2022-09-12T05:33:25.306Z,15.94
2022-09-12T05:36:31.901Z,15.94
2022-09-12T05:39:33.980Z,16.00
2022-09-12T05:42:36.792Z,16.04
2022-09-12T05:45:39.352Z,16.18
2022-09-12T05:48:43.641Z,16.18
2022-09-12T05:51:46.119Z,16.16
2022-09-12T05:54:48.745Z,16.16
2022-09-12T05:57:51.098Z,16.30
2022-09-12T06:00:53.459Z,16.29
2022-09-12T06:03:57.704Z,16.31
2022-09-12T06:07:00.284Z,16.22
2022-09-12T06:10:05.318Z,16.35
2022-09-12T06:13:08.637Z,16.28
2022-09-12T06:16:14.557Z,16.32
2022-09-12T06:19:21.542Z,16.34
2022-09-12T06:22:23.911Z,16.37
2022-09-12T06:25:26.393Z,16.49
2022-09-12T06:28:29.022Z,16.50
2022-09-12T06:31:36.645Z,16.60
2022-09-12T06:34:39.310Z,16.65
2022-09-12T06:37:44.383Z,16.69
2022-09-12T06:40:47.058Z,16.67
2022-09-12T06:43:49.107Z,16.73
2022-09-12T06:46:54.212Z,16.72
2022-09-12T06:49:56.334Z,16.83
2022-09-12T06:52:58.652Z,16.82
2022-09-12T06:56:03.875Z,16.76
2022-09-12T06:59:06.751Z,16.83
2022-09-12T07:02:09.974Z,16.82
2022-09-12T07:05:12.967Z,16.77
2022-09-12T07:08:15.063Z,16.85
2022-09-12T07:11:23.780Z,16.92
2022-09-12T07:14:26.066Z,16.90
2022-09-12T07:17:28.847Z,17.06
2022-09-12T07:20:32.887Z,17.10
2022-09-12T07:23:35.219Z,17.21
2022-09-12T07:26:38.811Z,17.25
2022-09-12T07:29:41.297Z,17.49
2022-09-12T07:32:43.391Z,17.84
2022-09-12T07:35:45.708Z,18.28
2022-09-12T07:38:48.749Z,18.46
2022-09-12T07:41:52.042Z,18.43
2022-09-12T07:44:54.136Z,18.46
2022-09-12T07:47:56.713Z,18.74
2022-09-12T07:51:04.329Z,19.02
2022-09-12T07:54:09.890Z,19.19
2022-09-12T07:57:11.999Z,19.91
2022-09-12T08:00:16.045Z,20.10
2022-09-12T08:03:19.570Z,20.76
2022-09-12T08:06:25.939Z,21.27
2022-09-12T08:09:28.276Z,21.90
2022-09-12T08:12:32.235Z,22.17
2022-09-12T08:15:34.767Z,22.14
2022-09-12T08:18:37.120Z,22.41
2022-09-12T08:21:39.599Z,22.61
2022-09-12T08:24:41.892Z,22.55
2022-09-12T08:27:44.286Z,23.13
2022-09-12T08:30:46.598Z,23.69
2022-09-12T08:33:49.267Z,24.04
2022-09-12T08:36:54.163Z,24.33
2022-09-12T08:39:56.977Z,24.41
2022-09-12T08:43:11.626Z,24.25
2022-09-12T08:46:23.722Z,24.50
2022-09-12T08:49:33.775Z,24.35
2022-09-12T08:52:58.436Z,24.68
2022-09-12T08:56:00.586Z,24.62
2022-09-12T08:59:03.305Z,24.48
2022-09-12T09:02:32.944Z,24.65
2022-09-12T09:06:03.058Z,24.36
2022-09-12T09:09:11.942Z,24.41
2022-09-12T09:12:29.051Z,24.62
2022-09-12T09:15:36.203Z,24.19
2022-09-12T09:18:40.736Z,24.02
2022-09-12T09:22:04.351Z,24.30
2022-09-12T09:25:19.707Z,24.40
2022-09-12T09:28:49.800Z,24.38
2022-09-12T09:31:55.924Z,24.14
2022-09-12T09:34:58.274Z,23.97
2022-09-12T09:38:39.398Z,23.99
2022-09-12T09:41:47.309Z,23.71
2022-09-12T09:44:53.468Z,23.89
2022-09-12T09:48:06.171Z,23.92
2022-09-12T09:51:09.452Z,23.18
2022-09-12T09:54:23.276Z,22.96
2022-09-12T09:57:34.730Z,23.07
2022-09-12T10:00:38.543Z,23.13
2022-09-12T10:03:48.685Z,23.10
2022-09-12T10:06:56.943Z,23.09
2022-09-12T10:10:07.677Z,23.21
2022-09-12T10:13:24.623Z,23.14
2022-09-12T10:16:32.755Z,22.62
2022-09-12T10:19:37.532Z,22.08
2022-09-12T10:22:39.957Z,21.78
2022-09-12T10:25:47.729Z,21.57
2022-09-12T10:28:55.956Z,21.40
2022-09-12T10:32:02.090Z,21.22
2022-09-12T10:35:09.133Z,21.33
2022-09-12T10:38:22.747Z,21.41
2022-09-12T10:41:25.421Z,21.37
2022-09-12T10:44:34.161Z,21.29
2022-09-12T10:47:37.927Z,21.48
2022-09-12T10:50:41.951Z,21.74
2022-09-12T10:53:46.732Z,22.03
2022-09-12T10:57:07.744Z,22.23
2022-09-12T11:00:17.632Z,22.13
2022-09-12T11:03:43.795Z,21.72
2022-09-12T11:07:13.679Z,21.42
2022-09-12T11:10:46.293Z,21.20
2022-09-12T11:13:58.262Z,21.13
2022-09-12T11:17:08.867Z,20.91
2022-09-12T11:20:40.922Z,20.88
2022-09-12T11:24:01.494Z,20.88
2022-09-12T11:27:26.711Z,20.79
2022-09-12T11:30:37.213Z,20.60
2022-09-12T11:33:45.684Z,20.60
2022-09-12T11:36:50.675Z,20.69
2022-09-12T11:39:57.796Z,20.54
2022-09-12T11:43:06.593Z,20.60
2022-09-12T11:46:58.579Z,20.39
2022-09-12T11:50:05.477Z,20.43
2022-09-12T11:53:19.341Z,20.83
2022-09-12T11:56:21.463Z,21.30
2022-09-12T11:59:42.764Z,21.62
2022-09-12T12:03:17.361Z,21.67
2022-09-12T12:06:33.491Z,21.42
2022-09-12T12:09:36.501Z,21.21
2022-09-12T12:12:39.037Z,21.16
2022-09-12T12:15:49.822Z,20.94
2022-09-12T12:18:58.093Z,20.92
2022-09-12T12:22:12.434Z,20.97
2022-09-12T12:25:18.361Z,21.14
2022-09-12T12:28:43.126Z,21.08
2022-09-12T12:32:03.586Z,21.17
2022-09-12T12:35:46.281Z,21.19
2022-09-12T12:38:48.620Z,21.59
2022-09-12T12:41:50.699Z,21.67
2022-09-12T12:44:53.226Z,21.63
2022-09-12T12:47:59.853Z,21.68
2022-09-12T12:51:39.824Z,21.69
2022-09-12T12:54:41.852Z,21.84
2022-09-12T12:57:50.893Z,22.06
2022-09-12T13:01:16.512Z,21.96
2022-09-12T13:04:22.300Z,21.85
2022-09-12T13:07:29.056Z,21.73
2022-09-12T13:10:31.815Z,21.62
2022-09-12T13:13:41.767Z,21.45
2022-09-12T13:16:56.424Z,21.39
2022-09-12T13:20:30.100Z,21.36
2022-09-12T13:23:32.819Z,21.30
2022-09-12T13:26:42.015Z,21.27
2022-09-12T13:29:44.364Z,21.29
2022-09-12T13:32:46.450Z,21.27
2022-09-12T13:36:06.405Z,21.43
2022-09-12T13:39:28.828Z,21.74
2022-09-12T13:42:39.343Z,21.84
2022-09-12T13:45:43.571Z,21.87
2022-09-12T13:48:46.550Z,21.78
2022-09-12T13:52:18.419Z,21.85
2022-09-12T13:55:41.668Z,21.80
2022-09-12T13:58:56.794Z,21.69
2022-09-12T14:01:59.208Z,21.63
2022-09-12T14:05:11.795Z,21.51
2022-09-12T14:08:15.283Z,21.40
2022-09-12T14:11:25.115Z,21.27
2022-09-12T14:14:36.528Z,21.19
2022-09-12T14:17:39.610Z,21.08
2022-09-12T14:20:42.697Z,20.94
2022-09-12T14:23:48.077Z,20.93
2022-09-12T14:26:56.624Z,20.94
2022-09-12T14:30:03.794Z,20.97
2022-09-12T14:33:05.831Z,21.13
2022-09-12T14:36:19.393Z,21.23
2022-09-12T14:39:38.165Z,21.33
2022-09-12T14:42:42.458Z,21.43
2022-09-12T14:45:51.935Z,21.45
2022-09-12T14:49:08.413Z,21.54
2022-09-12T14:52:33.085Z,21.54
2022-09-12T14:55:43.399Z,21.54
2022-09-12T14:58:45.493Z,21.68
2022-09-12T15:01:47.955Z,21.48
2022-09-12T15:04:53.116Z,21.36
2022-09-12T15:08:02.574Z,21.18
2022-09-12T15:11:06.953Z,21.18
2022-09-12T15:14:13.597Z,21.26
2022-09-12T15:17:15.678Z,21.34
2022-09-12T15:20:17.984Z,21.39
2022-09-12T15:23:33.093Z,21.45
2022-09-12T15:26:35.605Z,21.47
2022-09-12T15:29:38.525Z,21.44
2022-09-12T15:32:43.362Z,21.37
2022-09-12T15:35:46.035Z,21.31
2022-09-12T15:38:49.222Z,21.35
2022-09-12T15:41:51.551Z,21.36
2022-09-12T15:44:53.875Z,21.42
2022-09-12T15:47:56.715Z,21.29
2022-09-12T15:51:01.627Z,21.25
2022-09-12T15:54:04.886Z,21.25
2022-09-12T15:57:07.936Z,21.16
2022-09-12T16:00:10.655Z,21.24
2022-09-12T16:03:25.250Z,21.16
2022-09-12T16:06:33.560Z,21.06
2022-09-12T16:09:38.421Z,21.09
2022-09-12T16:12:40.847Z,21.04
2022-09-12T16:15:42.982Z,20.99
2022-09-12T16:18:45.445Z,21.02
2022-09-12T16:21:47.955Z,20.89
2022-09-12T16:24:50.277Z,20.83
2022-09-12T16:27:52.431Z,20.81
2022-09-12T16:31:02.453Z,20.75
2022-09-12T16:34:04.610Z,20.70
2022-09-12T16:37:06.928Z,20.66
2022-09-12T16:40:09.700Z,20.61
2022-09-12T16:43:12.114Z,20.54
2022-09-12T16:46:15.939Z,20.47
2022-09-12T16:49:18.366Z,20.38
2022-09-12T16:52:20.597Z,20.33
2022-09-12T16:55:22.941Z,20.21
2022-09-12T16:58:25.446Z,20.18
2022-09-12T17:01:27.913Z,20.16
2022-09-12T17:04:30.059Z,20.01
2022-09-12T17:07:34.120Z,19.93
2022-09-12T17:10:41.102Z,19.80
2022-09-12T17:14:03.690Z,19.68
2022-09-12T17:17:07.222Z,19.64
2022-09-12T17:20:09.597Z,19.57
2022-09-12T17:23:11.685Z,19.58
2022-09-12T17:26:14.946Z,19.51
2022-09-12T17:29:17.988Z,19.47
2022-09-12T17:32:20.326Z,19.36
2022-09-12T17:35:22.366Z,19.30
2022-09-12T17:38:25.453Z,19.17
2022-09-12T17:41:29.453Z,19.14
2022-09-12T17:44:31.884Z,19.08
2022-09-12T17:47:34.003Z,19.05
2022-09-12T17:50:39.522Z,19.00
2022-09-12T17:53:42.557Z,18.95
2022-09-12T17:56:46.725Z,18.95
2022-09-12T17:59:48.799Z,18.99
2022-09-12T18:02:51.155Z,18.92
2022-09-12T18:05:55.810Z,18.92
2022-09-12T18:09:03.085Z,18.79
2022-09-12T18:12:05.972Z,18.83
2022-09-12T18:15:08.694Z,18.67
2022-09-12T18:18:11.072Z,18.59
2022-09-12T18:21:13.438Z,18.49
2022-09-12T18:24:15.951Z,18.38
2022-09-12T18:27:18.031Z,18.28
2022-09-12T18:30:22.893Z,18.26
2022-09-12T18:33:25.333Z,18.14
2022-09-12T18:36:29.134Z,18.14
2022-09-12T18:39:31.232Z,18.07
2022-09-12T18:42:33.571Z,18.03
2022-09-12T18:45:35.719Z,18.00
2022-09-12T18:48:38.541Z,17.93
2022-09-12T18:51:41.775Z,17.88
2022-09-12T18:54:44.279Z,17.93
2022-09-12T18:57:46.878Z,17.85
2022-09-12T19:00:50.059Z,17.87
2022-09-12T19:03:53.743Z,17.86
2022-09-12T19:06:56.075Z,17.80
2022-09-12T19:09:58.207Z,17.81
2022-09-12T19:13:01.730Z,17.75
2022-09-12T19:16:09.100Z,17.70
2022-09-12T19:19:11.576Z,17.57
2022-09-12T19:22:13.658Z,17.50
2022-09-12T19:25:16.048Z,17.51
2022-09-12T19:28:18.136Z,17.48
2022-09-12T19:31:21.761Z,17.46
2022-09-12T19:34:23.900Z,17.42
2022-09-12T19:37:26.287Z,17.34
2022-09-12T19:40:28.414Z,17.34
2022-09-12T19:43:32.069Z,17.33
2022-09-12T19:46:34.347Z,17.25
2022-09-12T19:49:36.747Z,17.21
2022-09-12T19:52:38.828Z,17.19
2022-09-12T19:55:41.278Z,17.20
2022-09-12T19:58:46.073Z,17.17
2022-09-12T20:01:48.563Z,17.16
2022-09-12T20:04:51.443Z,17.15
2022-09-12T20:07:53.934Z,17.13
2022-09-12T20:10:57.200Z,17.08
2022-09-12T20:13:59.539Z,17.08
2022-09-12T20:17:02.007Z,17.11
2022-09-12T20:20:06.816Z,17.03
2022-09-12T20:23:09.275Z,17.00
2022-09-12T20:26:11.470Z,16.92
2022-09-12T20:29:14.253Z,16.86
2022-09-12T20:32:18.208Z,16.79
2022-09-12T20:35:20.660Z,16.74
2022-09-12T20:38:22.727Z,16.62
2022-09-12T20:41:27.424Z,16.29
2022-09-12T20:44:30.243Z,16.05
2022-09-12T20:47:32.617Z,15.89
2022-09-12T20:50:34.708Z,15.90
2022-09-12T20:53:37.450Z,15.85
2022-09-12T20:56:39.561Z,15.74
2022-09-12T20:59:42.552Z,15.62
2022-09-12T21:02:44.703Z,15.43
2022-09-12T21:05:47.280Z,15.26
2022-09-12T21:08:50.554Z,15.23
2022-09-12T21:11:52.908Z,15.12
2022-09-12T21:14:55.120Z,14.99
2022-09-12T21:17:57.923Z,14.94
2022-09-12T21:21:00.315Z,14.96
2022-09-12T21:24:04.534Z,14.92
2022-09-12T21:27:06.853Z,14.83
2022-09-12T21:30:09.513Z,14.75
2022-09-12T21:33:11.626Z,14.73
2022-09-12T21:36:14.250Z,14.58
2022-09-12T21:39:16.291Z,14.55
2022-09-12T21:42:18.682Z,14.55
2022-09-12T21:45:20.739Z,14.54
2022-09-12T21:48:23.106Z,14.38
2022-09-12T21:51:25.344Z,14.24
2022-09-12T21:54:27.821Z,14.16
2022-09-12T21:57:29.984Z,14.20
2022-09-12T22:00:32.520Z,14.13
2022-09-12T22:03:34.898Z,14.12
2022-09-12T22:06:37.199Z,14.08
2022-09-12T22:09:39.545Z,13.99
2022-09-12T22:12:46.059Z,13.90
2022-09-12T22:15:53.063Z,13.89
2022-09-12T22:18:55.161Z,13.77
2022-09-12T22:22:16.240Z,13.69
2022-09-12T22:25:20.147Z,13.59
2022-09-12T22:28:23.146Z,13.57
2022-09-12T22:31:26.955Z,13.52
2022-09-12T22:34:29.916Z,13.30
2022-09-12T22:37:32.002Z,13.32
2022-09-12T22:40:35.012Z,13.33
2022-09-12T22:43:37.619Z,13.23
2022-09-12T22:46:40.357Z,13.23
2022-09-12T22:49:42.521Z,13.27
2022-09-12T22:52:44.878Z,13.20
2022-09-12T22:55:47.398Z,13.21
2022-09-12T22:58:50.747Z,13.21
2022-09-12T23:01:52.837Z,13.27
2022-09-12T23:04:55.194Z,13.23
2022-09-12T23:07:57.362Z,13.15
2022-09-12T23:11:01.490Z,13.11
2022-09-12T23:14:03.615Z,13.09
2022-09-12T23:17:05.959Z,13.08
2022-09-12T23:20:08.458Z,13.08
2022-09-12T23:23:10.939Z,13.10
2022-09-12T23:26:31.151Z,13.05
2022-09-12T23:29:35.233Z,13.10
2022-09-12T23:32:37.343Z,13.03
2022-09-12T23:35:39.651Z,12.99
2022-09-12T23:38:44.017Z,12.90
2022-09-12T23:41:46.399Z,12.80
2022-09-12T23:44:48.462Z,12.83
2022-09-12T23:47:50.874Z,12.81
2022-09-12T23:50:53.872Z,12.72
2022-09-12T23:53:56.421Z,12.70
2022-09-12T23:56:58.485Z,12.61
